Time;durP1;ratioP1;P1;durP2;ratioP2;P2;SDS_P1;SDS_P2;PMS_P1;PMS_P2;Temp;Humidity;BMP_temperature;BMP_pressure;BME280_temperature;BME280_humidity;BME280_pressure;Samples;Min_cycle;Max_cycle;Signal;HPM_P1;HPM_P2
2021/12/18 00:01:44;;;;;;;10.95;7.38;;;5.60;96.70;;;;;;4955727;28;20045;-71
2021/12/18 00:04:12;;;;;;;14.45;7.68;;;5.50;96.70;;;;;;4974868;28;20133;-71
2021/12/18 00:06:40;;;;;;;11.95;7.82;;;5.50;96.70;;;;;;4967884;28;20054;-71
2021/12/18 00:09:08;;;;;;;10.93;7.75;;;5.60;96.70;;;;;;4937432;28;20061;-71
2021/12/18 00:11:36;;;;;;;11.73;7.65;;;5.60;96.70;;;;;;4952366;28;20564;-71
2021/12/18 00:14:06;;;;;;;13.43;7.28;;;5.60;96.70;;;;;;4953538;28;20136;-70
2021/12/18 00:16:34;;;;;;;12.18;8.23;;;5.50;96.70;;;;;;4957938;28;20126;-71
2021/12/18 00:19:03;;;;;;;12.07;8.18;;;5.50;96.70;;;;;;4953550;28;20109;-71
2021/12/18 00:21:36;;;;;;;13.18;7.90;;;5.50;96.70;;;;;;4956909;28;20538;-71
2021/12/18 00:24:06;;;;;;;13.90;8.20;;;5.50;96.70;;;;;;4971232;28;20039;-70
2021/12/18 00:26:34;;;;;;;12.50;7.65;;;5.30;96.70;;;;;;4969118;28;20038;-71
2021/12/18 00:29:02;;;;;;;12.88;8.52;;;5.20;96.70;;;;;;4958406;28;20046;-71
2021/12/18 00:31:31;;;;;;;10.65;7.72;;;5.10;96.70;;;;;;4955176;28;20055;-71
2021/12/18 00:33:59;;;;;;;10.13;7.45;;;5.10;96.70;;;;;;4959877;28;20046;-71
2021/12/18 00:36:27;;;;;;;13.98;7.82;;;5.20;96.70;;;;;;4953469;28;20714;-70
2021/12/18 00:38:58;;;;;;;12.65;7.50;;;5.20;96.70;;;;;;4955222;28;20052;-71
2021/12/18 00:41:36;;;;;;;11.32;7.65;;;5.30;96.70;;;;;;4968867;28;20054;-71
2021/12/18 00:44:05;;;;;;;11.70;7.90;;;5.30;96.70;;;;;;4971843;28;20103;-70
2021/12/18 00:46:37;;;;;;;12.80;8.05;;;5.30;96.70;;;;;;4981634;28;20149;-71
2021/12/18 00:49:06;;;;;;;9.30;6.95;;;5.30;96.70;;;;;;4957113;28;20408;-71
2021/12/18 00:51:35;;;;;;;10.60;7.35;;;5.40;96.70;;;;;;4960276;28;20503;-71
2021/12/18 00:54:03;;;;;;;10.68;6.68;;;5.40;96.70;;;;;;4973187;28;20066;-71
2021/12/18 00:56:32;;;;;;;10.68;6.43;;;5.40;96.70;;;;;;4959899;28;20039;-70
2021/12/18 00:59:00;;;;;;;7.88;5.43;;;5.40;96.70;;;;;;4970259;28;20051;-71
2021/12/18 01:01:31;;;;;;;9.73;5.43;;;5.40;96.70;;;;;;4973744;28;20069;-71
2021/12/18 01:04:01;;;;;;;7.97;4.93;;;5.40;96.70;;;;;;4978465;28;20433;-71
2021/12/18 01:06:30;;;;;;;6.40;4.47;;;5.40;96.70;;;;;;4959391;28;20074;-70
2021/12/18 01:08:58;;;;;;;6.97;4.68;;;5.30;96.70;;;;;;4976930;28;20039;-71
2021/12/18 01:11:35;;;;;;;7.93;5.70;;;5.10;96.70;;;;;;4958497;28;20047;-71
2021/12/18 01:16:49;;;;;;;7.28;5.13;;;5.00;96.70;;;;;;4955895;28;20121;-71
2021/12/18 01:24:53;;;;;;;8.77;5.30;;;5.20;96.70;;;;;;4953783;28;20081;-70
2021/12/18 01:27:21;;;;;;;10.68;5.30;;;5.20;96.70;;;;;;4960284;28;20043;-70
2021/12/18 01:29:49;;;;;;;8.73;5.70;;;5.20;96.70;;;;;;4976335;28;20563;-71
2021/12/18 01:32:24;;;;;;;8.52;4.70;;;5.20;96.70;;;;;;4970585;28;20038;-71
2021/12/18 01:34:53;;;;;;;7.40;4.70;;;5.20;96.70;;;;;;4975157;28;20823;-71
2021/12/18 01:37:21;;;;;;;6.93;4.45;;;5.10;96.70;;;;;;4971491;28;20072;-70
2021/12/18 01:39:52;;;;;;;6.72;4.88;;;5.10;96.70;;;;;;4976333;28;20045;-70
2021/12/18 01:52:54;;;;;;;5.65;3.78;;;4.80;96.70;;;;;;4970507;28;20568;-70
2021/12/18 01:55:27;;;;;;;6.13;3.78;;;4.80;96.70;;;;;;4958965;28;20210;-70
2021/12/18 01:57:55;;;;;;;8.23;3.85;;;4.80;96.70;;;;;;4956678;28;20559;-70
2021/12/18 02:00:27;;;;;;;6.43;3.90;;;4.80;96.70;;;;;;4956870;28;20046;-70
2021/12/18 02:02:55;;;;;;;5.80;3.50;;;4.90;96.70;;;;;;4971717;28;20054;-71
2021/12/18 02:05:25;;;;;;;6.00;3.80;;;4.80;96.70;;;;;;4955787;28;20512;-71
2021/12/18 02:07:53;;;;;;;6.30;3.72;;;4.80;96.70;;;;;;4955665;28;20413;-70
2021/12/18 02:10:25;;;;;;;5.68;3.95;;;4.90;96.70;;;;;;4972887;28;20138;-71
2021/12/18 02:21:06;;;;;;;6.10;4.75;;;4.70;96.70;;;;;;4969661;28;20557;-70
2021/12/18 02:23:36;;;;;;;7.43;4.85;;;4.60;96.70;;;;;;4976567;28;20046;-70
2021/12/18 02:26:04;;;;;;;8.98;5.68;;;4.70;96.70;;;;;;4968498;28;20484;-70
2021/12/18 02:28:32;;;;;;;7.47;5.10;;;4.70;96.70;;;;;;4959014;28;20035;-70
2021/12/18 02:31:01;;;;;;;7.65;5.15;;;4.70;96.70;;;;;;4972791;28;20101;-71
2021/12/18 02:33:29;;;;;;;6.88;5.03;;;4.60;96.70;;;;;;4974994;28;20122;-70
2021/12/18 02:36:01;;;;;;;7.47;5.50;;;4.60;96.70;;;;;;4973256;28;20137;-70
2021/12/18 02:38:45;;;;;;;7.15;5.03;;;4.60;96.70;;;;;;4971256;28;20065;-70
2021/12/18 02:43:56;;;;;;;9.85;5.65;;;4.60;96.70;;;;;;4950651;28;20059;-71
2021/12/18 02:46:25;;;;;;;8.73;5.82;;;4.50;96.70;;;;;;4950278;28;20054;-70
2021/12/18 02:48:54;;;;;;;10.40;6.10;;;4.50;96.70;;;;;;4951543;28;20058;-71
2021/12/18 02:51:24;;;;;;;9.98;5.63;;;4.50;96.70;;;;;;4952559;28;20043;-71
2021/12/18 02:53:54;;;;;;;8.40;6.15;;;4.50;96.70;;;;;;4952657;28;20047;-70
2021/12/18 02:56:23;;;;;;;10.88;5.78;;;4.50;96.70;;;;;;4949028;28;20074;-70
2021/12/18 02:58:53;;;;;;;9.20;6.13;;;4.60;96.70;;;;;;4950975;28;20035;-71
2021/12/18 03:01:24;;;;;;;8.88;6.00;;;4.50;96.70;;;;;;4951977;28;20039;-70
2021/12/18 03:03:54;;;;;;;11.05;5.95;;;4.40;96.70;;;;;;4954159;28;20039;-70
2021/12/18 03:25:19;;;;;;;10.13;5.95;;;4.40;96.70;;;;;;4952868;28;20086;-71
2021/12/18 03:27:48;;;;;;;8.60;5.63;;;4.60;96.70;;;;;;4933577;28;20054;-71
2021/12/18 03:30:16;;;;;;;10.88;6.60;;;4.70;96.70;;;;;;4948495;28;20046;-71
2021/12/18 03:32:45;;;;;;;9.38;6.20;;;4.60;96.70;;;;;;4955420;28;20058;-71
2021/12/18 03:35:14;;;;;;;8.77;5.85;;;4.70;96.70;;;;;;4950282;28;20084;-71
2021/12/18 03:37:44;;;;;;;11.07;6.20;;;4.60;96.70;;;;;;4951029;28;20047;-70
2021/12/18 03:40:15;;;;;;;10.55;6.10;;;4.50;96.70;;;;;;4949031;28;20039;-70
2021/12/18 03:42:43;;;;;;;7.95;5.68;;;4.60;96.70;;;;;;4948888;28;20058;-71
2021/12/18 03:45:13;;;;;;;9.25;5.72;;;4.60;96.70;;;;;;4953239;28;20793;-70
2021/12/18 03:47:42;;;;;;;9.88;5.93;;;4.50;96.70;;;;;;4952508;28;20061;-71
2021/12/18 03:50:10;;;;;;;7.65;5.25;;;4.60;96.70;;;;;;4952531;28;20122;-70
2021/12/18 03:52:38;;;;;;;7.43;5.22;;;4.60;96.70;;;;;;4952316;28;20058;-70
2021/12/18 03:55:09;;;;;;;6.72;4.78;;;4.60;96.70;;;;;;4952764;28;20517;-70
2021/12/18 03:57:37;;;;;;;8.07;5.05;;;4.50;96.70;;;;;;4951281;28;20038;-70
2021/12/18 04:00:08;;;;;;;8.65;5.10;;;4.40;96.70;;;;;;4954083;28;20054;-70
2021/12/18 04:02:39;;;;;;;6.32;4.40;;;4.30;96.70;;;;;;4950652;28;20122;-70
2021/12/18 04:05:08;;;;;;;7.00;4.53;;;4.30;96.70;;;;;;4952600;28;20050;-70
2021/12/18 04:07:42;;;;;;;6.15;4.28;;;4.30;96.70;;;;;;4945526;28;20059;-70
2021/12/18 04:10:14;;;;;;;5.90;3.80;;;4.20;96.70;;;;;;4948373;28;20051;-70
2021/12/18 04:12:42;;;;;;;5.53;3.50;;;4.20;96.70;;;;;;4949813;28;20051;-70
2021/12/18 04:15:10;;;;;;;6.95;4.15;;;4.10;96.70;;;;;;4956308;28;20043;-70
2021/12/18 04:17:39;;;;;;;7.03;3.70;;;4.10;96.70;;;;;;4935292;28;20517;-70
2021/12/18 04:20:08;;;;;;;6.25;3.75;;;4.10;96.70;;;;;;4955239;28;20054;-70
2021/12/18 04:22:36;;;;;;;5.55;3.65;;;4.10;96.70;;;;;;4953814;28;20054;-70
2021/12/18 04:25:06;;;;;;;7.10;4.22;;;4.20;96.70;;;;;;4953916;28;20114;-70
2021/12/18 04:27:35;;;;;;;5.78;3.60;;;4.10;96.70;;;;;;4937840;28;20074;-70
2021/12/18 04:30:04;;;;;;;7.85;4.20;;;4.10;96.70;;;;;;4938226;28;20059;-70
2021/12/18 04:32:32;;;;;;;6.88;3.72;;;4.10;96.70;;;;;;4958129;28;20046;-70
2021/12/18 04:35:01;;;;;;;5.95;3.75;;;4.20;96.70;;;;;;4955474;28;20058;-70
2021/12/18 04:37:29;;;;;;;7.28;3.42;;;4.20;96.70;;;;;;4938979;28;20405;-70
2021/12/18 04:39:57;;;;;;;6.00;4.00;;;4.10;96.70;;;;;;4955072;28;20085;-70
2021/12/18 04:42:25;;;;;;;6.72;4.13;;;4.10;96.70;;;;;;4953601;28;20528;-70
2021/12/18 04:44:55;;;;;;;6.97;4.10;;;4.10;96.70;;;;;;4939375;28;20055;-70
2021/12/18 04:47:23;;;;;;;7.47;3.95;;;4.10;96.70;;;;;;4954072;28;20601;-70
2021/12/18 04:49:51;;;;;;;7.45;4.15;;;4.00;96.70;;;;;;4953761;28;20571;-70
2021/12/18 04:52:19;;;;;;;8.13;4.55;;;4.00;96.70;;;;;;4956946;28;20039;-70
2021/12/18 04:54:47;;;;;;;7.28;4.20;;;4.10;96.70;;;;;;4953701;28;20043;-70
2021/12/18 04:57:15;;;;;;;4.97;3.95;;;4.10;96.70;;;;;;4959902;28;20070;-70
2021/12/18 04:59:44;;;;;;;7.70;4.50;;;4.10;96.70;;;;;;4952047;28;20047;-70
2021/12/18 05:02:19;;;;;;;8.52;4.70;;;3.90;96.70;;;;;;4956438;28;20042;-69
2021/12/18 05:04:47;;;;;;;6.43;4.63;;;3.80;96.70;;;;;;4954757;28;20034;-70
2021/12/18 05:07:15;;;;;;;7.28;4.35;;;3.80;96.70;;;;;;4961712;28;20053;-70
2021/12/18 05:09:44;;;;;;;7.15;4.35;;;3.80;96.70;;;;;;4958336;28;20047;-70
2021/12/18 05:12:12;;;;;;;7.68;4.30;;;3.90;96.70;;;;;;4954910;28;20050;-70
2021/12/18 05:14:40;;;;;;;7.20;4.28;;;3.70;96.70;;;;;;4954942;28;20047;-70
2021/12/18 05:17:08;;;;;;;6.68;4.53;;;3.60;96.70;;;;;;4953911;28;20039;-70
2021/12/18 05:19:38;;;;;;;5.75;4.20;;;3.60;96.70;;;;;;4946944;28;20053;-70
2021/12/18 05:22:06;;;;;;;6.97;4.82;;;3.70;96.70;;;;;;4952611;28;20054;-70
2021/12/18 05:24:35;;;;;;;6.05;4.30;;;3.80;96.70;;;;;;4955227;28;20073;-70
2021/12/18 05:27:03;;;;;;;6.40;4.45;;;3.70;96.70;;;;;;4952820;28;20047;-70
2021/12/18 05:29:31;;;;;;;5.72;4.68;;;3.70;96.70;;;;;;4954214;28;20039;-69
2021/12/18 05:31:59;;;;;;;7.72;4.72;;;3.70;96.70;;;;;;4956374;28;20108;-70
2021/12/18 05:34:33;;;;;;;6.55;4.13;;;3.70;96.70;;;;;;4956059;28;20051;-70
2021/12/18 05:37:19;;;;;;;6.05;4.38;;;3.60;96.70;;;;;;4954625;28;20051;-70
2021/12/18 05:39:48;;;;;;;7.17;4.77;;;3.60;96.70;;;;;;4955736;28;20497;-70
2021/12/18 05:42:16;;;;;;;7.60;4.53;;;3.60;96.70;;;;;;4956168;28;20134;-70
2021/12/18 05:44:45;;;;;;;7.90;4.20;;;3.70;96.70;;;;;;4951433;28;20062;-70
2021/12/18 05:47:13;;;;;;;8.27;5.20;;;3.70;96.70;;;;;;4952972;28;20923;-70
2021/12/18 05:49:41;;;;;;;7.18;5.10;;;3.60;96.70;;;;;;4959308;28;20186;-70
2021/12/18 05:52:11;;;;;;;9.60;6.20;;;3.70;96.70;;;;;;4953322;28;20050;-70
2021/12/18 05:54:40;;;;;;;11.90;7.35;;;3.80;96.70;;;;;;4953010;28;20152;-70
2021/12/18 05:57:14;;;;;;;10.90;7.20;;;3.70;96.70;;;;;;4953034;28;20094;-70
2021/12/18 05:59:44;;;;;;;9.05;6.40;;;3.70;96.70;;;;;;4954660;28;20045;-70
2021/12/18 06:02:12;;;;;;;10.63;5.70;;;3.70;96.70;;;;;;4951825;28;20051;-70
2021/12/18 06:04:42;;;;;;;7.70;4.97;;;3.80;96.70;;;;;;4955435;28;20675;-70
2021/12/18 06:07:27;;;;;;;6.78;4.30;;;3.90;96.70;;;;;;4953007;28;20513;-70
2021/12/18 06:09:56;;;;;;;7.10;4.70;;;3.70;96.70;;;;;;4955569;28;20064;-70
2021/12/18 06:12:25;;;;;;;6.30;4.68;;;3.70;96.70;;;;;;4954957;28;20583;-70
2021/12/18 06:14:53;;;;;;;4.93;3.70;;;3.70;96.70;;;;;;4958000;28;20042;-70
2021/12/18 06:17:21;;;;;;;6.65;4.07;;;3.80;96.70;;;;;;4956326;28;20039;-70
2021/12/18 06:19:49;;;;;;;7.55;4.68;;;3.80;96.70;;;;;;4955227;28;20070;-70
2021/12/18 06:22:19;;;;;;;7.60;4.93;;;3.70;96.70;;;;;;4952122;28;20082;-70
2021/12/18 06:24:47;;;;;;;6.85;4.57;;;3.70;96.70;;;;;;4950822;28;20035;-70
2021/12/18 06:27:15;;;;;;;7.20;4.22;;;3.60;96.70;;;;;;4951400;28;20062;-70
2021/12/18 06:29:43;;;;;;;5.35;4.28;;;3.60;96.70;;;;;;4955973;28;20067;-70
2021/12/18 06:32:12;;;;;;;7.90;4.90;;;3.60;96.70;;;;;;4950582;28;20956;-70
2021/12/18 06:34:40;;;;;;;7.18;4.07;;;3.50;96.70;;;;;;4951620;28;20045;-70
2021/12/18 06:37:08;;;;;;;7.88;4.45;;;3.50;96.70;;;;;;4950398;28;20047;-70
2021/12/18 06:39:37;;;;;;;6.45;4.53;;;3.50;96.70;;;;;;4950892;28;20490;-70
2021/12/18 06:42:06;;;;;;;5.53;4.10;;;3.40;96.70;;;;;;4949447;28;20540;-70
2021/12/18 06:44:34;;;;;;;6.85;4.20;;;3.40;96.70;;;;;;4966312;28;20066;-70
2021/12/18 06:47:02;;;;;;;6.32;4.50;;;3.50;96.70;;;;;;4954660;28;20084;-70
2021/12/18 06:49:31;;;;;;;6.20;4.10;;;3.40;96.70;;;;;;4977357;28;20449;-70
2021/12/18 06:51:59;;;;;;;5.78;4.00;;;3.40;96.70;;;;;;4972686;28;20064;-70
2021/12/18 06:54:27;;;;;;;6.05;4.30;;;3.40;96.70;;;;;;4957624;28;20054;-70
2021/12/18 06:56:57;;;;;;;8.10;4.40;;;3.40;96.70;;;;;;4971366;28;20073;-72
2021/12/18 06:59:25;;;;;;;6.28;4.28;;;3.40;96.70;;;;;;4951965;28;20053;-70
2021/12/18 07:01:53;;;;;;;6.18;3.90;;;3.40;96.70;;;;;;4972381;28;20069;-71
2021/12/18 07:04:24;;;;;;;7.50;4.10;;;3.30;96.70;;;;;;4972122;28;20043;-70
2021/12/18 07:06:54;;;;;;;6.75;4.18;;;3.40;96.70;;;;;;4973766;28;20053;-71
2021/12/18 07:09:22;;;;;;;7.57;4.60;;;3.40;96.70;;;;;;4939579;28;20093;-71
2021/12/18 07:11:50;;;;;;;7.15;4.65;;;3.30;96.70;;;;;;4976711;28;20050;-71
2021/12/18 07:14:20;;;;;;;8.02;5.60;;;3.30;96.70;;;;;;4969120;28;20333;-70
2021/12/18 07:16:48;;;;;;;9.93;5.45;;;3.40;96.70;;;;;;4942618;28;20073;-71
2021/12/18 07:19:16;;;;;;;6.63;4.30;;;3.30;96.70;;;;;;4955809;28;20534;-70
2021/12/18 07:21:44;;;;;;;7.03;4.70;;;3.20;96.70;;;;;;4969608;28;20066;-70
2021/12/18 07:24:12;;;;;;;7.35;4.78;;;3.20;96.70;;;;;;4952730;28;20113;-70
2021/12/18 07:26:40;;;;;;;8.73;4.45;;;3.10;96.70;;;;;;4937261;28;20046;-70
2021/12/18 07:29:08;;;;;;;7.20;3.83;;;3.20;96.70;;;;;;4967220;28;20031;-70
2021/12/18 07:31:38;;;;;;;6.72;4.07;;;3.30;96.70;;;;;;4971986;28;20046;-70
2021/12/18 07:34:06;;;;;;;6.35;3.80;;;3.30;96.70;;;;;;4968607;28;20030;-70
2021/12/18 07:36:34;;;;;;;6.40;4.18;;;3.40;96.70;;;;;;4973035;28;20042;-70
2021/12/18 07:39:03;;;;;;;6.93;4.20;;;3.50;96.70;;;;;;4969042;28;20042;-72
2021/12/18 07:41:31;;;;;;;6.75;3.92;;;3.60;96.70;;;;;;4968732;28;20052;-72
2021/12/18 07:44:03;;;;;;;13.98;8.95;;;3.60;96.70;;;;;;4950262;28;20394;-72
2021/12/18 07:46:31;;;;;;;11.27;7.10;;;3.60;96.70;;;;;;4955376;28;20050;-70
2021/12/18 07:49:02;;;;;;;8.23;6.25;;;3.70;96.70;;;;;;4956986;28;20588;-70
2021/12/18 07:51:30;;;;;;;11.25;6.32;;;3.80;96.70;;;;;;4955623;28;20050;-70
2021/12/18 07:53:58;;;;;;;6.78;5.13;;;3.90;96.70;;;;;;4949029;28;20039;-71
2021/12/18 07:56:27;;;;;;;6.78;5.18;;;3.90;96.70;;;;;;4949388;28;20043;-71
2021/12/18 07:58:56;;;;;;;10.98;5.88;;;4.00;96.70;;;;;;4949939;28;20041;-71
2021/12/18 08:01:25;;;;;;;8.95;5.78;;;4.00;96.70;;;;;;4952850;28;20053;-72
2021/12/18 08:03:53;;;;;;;21.40;7.25;;;4.10;96.70;;;;;;4950719;28;20290;-71
2021/12/18 08:06:23;;;;;;;10.10;6.53;;;4.20;96.70;;;;;;4951867;28;20047;-71
2021/12/18 08:08:51;;;;;;;11.77;7.50;;;4.40;96.70;;;;;;4948962;28;20654;-71
2021/12/18 08:11:19;;;;;;;10.68;7.72;;;4.50;96.70;;;;;;4946838;28;20110;-71
2021/12/18 08:13:49;;;;;;;9.27;6.50;;;4.50;96.70;;;;;;4948231;28;20130;-72
2021/12/18 08:16:18;;;;;;;10.00;7.32;;;4.50;96.70;;;;;;4949767;28;20134;-72
2021/12/18 08:18:46;;;;;;;10.65;6.80;;;4.50;96.70;;;;;;4948150;28;20046;-72
2021/12/18 08:21:15;;;;;;;10.20;7.43;;;4.50;96.70;;;;;;4949439;28;20043;-72
2021/12/18 08:23:45;;;;;;;21.40;12.18;;;4.70;96.70;;;;;;4947817;28;20047;-72
2021/12/18 08:26:14;;;;;;;30.83;16.05;;;4.70;96.70;;;;;;4938632;28;20043;-70
2021/12/18 08:28:42;;;;;;;37.10;18.52;;;4.70;96.70;;;;;;4938036;28;20054;-70
2021/12/18 08:31:10;;;;;;;43.55;21.17;;;4.70;96.70;;;;;;4945089;28;20054;-70
2021/12/18 08:33:38;;;;;;;41.85;20.33;;;4.70;96.70;;;;;;4952712;28;20120;-70
2021/12/18 08:36:07;;;;;;;38.72;21.65;;;4.80;96.70;;;;;;4951905;28;20130;-70
2021/12/18 08:38:35;;;;;;;39.13;20.75;;;4.90;96.70;;;;;;4935890;28;20565;-70
2021/12/18 08:41:04;;;;;;;40.97;21.58;;;5.00;96.70;;;;;;4950369;28;20109;-70
2021/12/18 08:43:32;;;;;;;37.38;19.30;;;5.00;96.70;;;;;;4960445;28;20054;-70
2021/12/18 08:46:00;;;;;;;36.72;18.75;;;5.10;96.70;;;;;;4966343;28;20046;-70
2021/12/18 08:48:28;;;;;;;35.22;18.10;;;5.20;96.70;;;;;;4968214;28;20047;-70
2021/12/18 08:50:57;;;;;;;30.70;15.43;;;5.20;96.70;;;;;;4969414;28;20546;-70
2021/12/18 08:53:25;;;;;;;32.20;15.25;;;5.20;96.70;;;;;;4968692;28;20698;-70
2021/12/18 08:55:53;;;;;;;27.25;13.82;;;5.30;96.70;;;;;;4969712;28;20054;-70
2021/12/18 08:58:22;;;;;;;23.70;12.15;;;5.40;96.70;;;;;;4956558;28;20457;-70
2021/12/18 09:00:51;;;;;;;25.75;14.13;;;5.50;96.70;;;;;;4972200;28;20054;-70
2021/12/18 09:03:19;;;;;;;22.90;12.85;;;5.60;96.70;;;;;;4968355;28;20406;-70
2021/12/18 09:05:48;;;;;;;24.05;12.27;;;5.70;96.70;;;;;;4974157;28;20536;-70
2021/12/18 09:08:22;;;;;;;23.20;10.45;;;5.80;96.70;;;;;;4959171;28;20532;-70
2021/12/18 09:10:51;;;;;;;21.45;11.10;;;5.90;96.70;;;;;;4976190;28;20544;-70
2021/12/18 09:13:21;;;;;;;18.00;10.60;;;6.00;96.70;;;;;;4976970;28;20046;-70
2021/12/18 09:15:49;;;;;;;17.83;9.55;;;6.00;96.70;;;;;;4972770;28;20051;-70
2021/12/18 09:18:17;;;;;;;17.42;9.73;;;6.10;96.70;;;;;;4972538;28;20227;-70
2021/12/18 09:20:46;;;;;;;16.20;9.65;;;6.10;96.70;;;;;;4951540;28;20491;-70
2021/12/18 09:23:17;;;;;;;15.15;8.48;;;6.20;96.70;;;;;;4957988;28;20045;-70
2021/12/18 09:25:46;;;;;;;16.48;8.43;;;6.20;96.70;;;;;;4943256;28;20080;-70
2021/12/18 09:28:14;;;;;;;13.43;7.45;;;6.30;96.70;;;;;;4944134;28;20078;-70
2021/12/18 09:30:44;;;;;;;14.35;8.02;;;6.50;96.70;;;;;;4955946;28;20045;-70
2021/12/18 09:33:13;;;;;;;15.18;7.60;;;6.60;96.70;;;;;;4973343;28;20042;-72
2021/12/18 09:35:41;;;;;;;15.75;6.78;;;6.60;96.70;;;;;;4974794;28;20062;-70
2021/12/18 09:38:10;;;;;;;12.20;6.32;;;6.70;96.70;;;;;;4975643;28;20045;-70
2021/12/18 09:40:38;;;;;;;9.82;5.97;;;6.80;96.70;;;;;;4976268;28;20038;-70
2021/12/18 09:43:07;;;;;;;11.35;6.45;;;6.90;96.70;;;;;;4977980;28;20599;-70
2021/12/18 09:45:37;;;;;;;8.23;5.60;;;7.00;96.70;;;;;;4975744;28;20137;-70
2021/12/18 09:48:07;;;;;;;8.45;5.63;;;7.20;96.70;;;;;;4962473;28;20052;-70
2021/12/18 09:50:37;;;;;;;9.82;6.20;;;7.30;96.70;;;;;;4962539;28;20867;-70
2021/12/18 09:53:06;;;;;;;9.63;6.10;;;7.40;96.70;;;;;;4973167;28;20046;-70
2021/12/18 09:55:34;;;;;;;9.43;6.57;;;7.50;96.70;;;;;;4973244;28;20039;-70
2021/12/18 09:58:02;;;;;;;10.85;7.90;;;7.60;96.70;;;;;;4975464;28;20047;-71
2021/12/18 10:00:31;;;;;;;9.43;6.80;;;7.60;96.70;;;;;;4976080;28;20042;-70
2021/12/18 10:02:59;;;;;;;11.32;8.43;;;7.70;96.70;;;;;;4975495;28;20107;-69
2021/12/18 10:05:31;;;;;;;10.98;8.27;;;7.70;96.70;;;;;;4956423;28;20391;-69
2021/12/18 10:08:11;;;;;;;12.57;8.80;;;7.80;96.70;;;;;;4957053;28;20247;-70
2021/12/18 10:10:58;;;;;;;11.50;8.07;;;7.80;96.70;;;;;;4957482;28;20394;-70
2021/12/18 10:13:26;;;;;;;13.52;8.65;;;7.90;96.70;;;;;;4956237;28;20069;-70
2021/12/18 10:16:15;;;;;;;13.82;9.20;;;7.90;96.70;;;;;;4974188;28;20057;-72
2021/12/18 10:18:43;;;;;;;15.80;10.00;;;7.90;96.70;;;;;;4965679;28;20065;-72
2021/12/18 10:21:16;;;;;;;14.63;9.70;;;8.00;96.70;;;;;;4973966;28;20038;-71
2021/12/18 10:23:45;;;;;;;14.07;8.85;;;8.10;96.70;;;;;;4952827;28;20481;-72
2021/12/18 10:26:34;;;;;;;11.43;8.70;;;8.20;96.70;;;;;;4974255;28;20386;-72
2021/12/18 10:29:03;;;;;;;12.82;8.98;;;8.30;96.70;;;;;;4956759;28;20131;-71
2021/12/18 10:31:49;;;;;;;12.52;8.70;;;8.40;96.70;;;;;;4936558;28;20429;-72
2021/12/18 10:34:22;;;;;;;11.60;8.77;;;8.40;96.70;;;;;;4975296;28;20054;-70
2021/12/18 10:37:25;;;;;;;12.07;8.38;;;8.50;96.70;;;;;;4971978;28;20050;-70
2021/12/18 10:40:02;;;;;;;11.07;7.93;;;8.60;96.70;;;;;;4891749;29;20522;-70
2021/12/18 10:42:33;;;;;;;12.93;8.48;;;8.70;96.70;;;;;;4879222;29;20056;-70
2021/12/18 10:45:11;;;;;;;13.25;9.35;;;8.80;96.70;;;;;;4892344;29;20056;-70
2021/12/18 10:47:44;;;;;;;14.18;8.25;;;8.90;96.70;;;;;;4891490;29;20059;-70
2021/12/18 10:50:17;;;;;;;9.50;7.47;;;9.10;96.70;;;;;;4876281;29;20497;-70
2021/12/18 10:52:53;;;;;;;13.13;7.63;;;9.20;96.70;;;;;;4895001;29;20071;-70
2021/12/18 10:55:30;;;;;;;12.80;8.55;;;9.20;96.70;;;;;;4893056;29;20056;-70
2021/12/18 10:57:58;;;;;;;10.57;8.00;;;9.40;96.70;;;;;;4895122;29;20056;-72
2021/12/18 11:00:35;;;;;;;14.45;7.65;;;9.50;96.70;;;;;;4893836;29;20059;-72
2021/12/18 11:03:19;;;;;;;;;;;9.60;96.70;;;;;;4885769;29;20052;-72
2021/12/18 11:06:20;;;;;;;12.77;8.05;;;9.70;96.70;;;;;;4893690;29;21112;-72
2021/12/18 11:08:58;;;;;;;13.95;8.23;;;9.90;96.70;;;;;;4857084;29;20167;-70
2021/12/18 11:14:06;;;;;;;9.43;7.50;;;10.00;96.70;;;;;;4968697;28;20469;-70
2021/12/18 11:16:37;;;;;;;9.98;7.10;;;10.10;96.70;;;;;;4953262;28;20529;-70
2021/12/18 11:19:08;;;;;;;13.25;7.53;;;10.20;96.70;;;;;;4973403;28;20031;-70
2021/12/18 11:21:36;;;;;;;12.10;6.93;;;10.40;96.70;;;;;;4953243;28;20102;-71
2021/12/18 11:24:09;;;;;;;12.02;8.15;;;10.50;96.70;;;;;;4973174;28;20050;-71
2021/12/18 11:26:44;;;;;;;11.10;8.10;;;10.70;96.70;;;;;;4969579;28;20047;-71
2021/12/18 11:29:18;;;;;;;12.50;8.32;;;10.80;96.70;;;;;;4952204;28;20400;-72
2021/12/18 11:31:47;;;;;;;10.68;7.68;;;10.90;96.70;;;;;;4970731;28;20049;-71
2021/12/18 11:34:15;;;;;;;9.90;7.57;;;11.00;96.70;;;;;;4970998;28;20121;-71
2021/12/18 11:36:46;;;;;;;10.75;7.32;;;11.10;96.70;;;;;;4971418;28;20051;-71
2021/12/18 11:39:20;;;;;;;13.40;7.70;;;11.30;96.70;;;;;;4954117;28;20583;-71
2021/12/18 11:41:50;;;;;;;10.50;7.25;;;11.40;96.70;;;;;;4957039;28;20042;-72
2021/12/18 11:44:29;;;;;;;10.15;8.30;;;11.50;96.70;;;;;;4950716;28;20387;-71
2021/12/18 11:46:58;;;;;;;12.40;8.02;;;11.60;96.70;;;;;;4967876;28;20140;-71
2021/12/18 11:49:43;;;;;;;9.65;7.35;;;11.80;96.70;;;;;;4955152;28;20071;-71
2021/12/18 11:52:11;;;;;;;10.43;7.72;;;12.00;96.70;;;;;;4970548;28;20851;-72
2021/12/18 11:54:45;;;;;;;9.07;7.07;;;12.10;96.70;;;;;;4950134;28;20046;-71
2021/12/18 11:57:29;;;;;;;9.48;6.95;;;12.10;96.70;;;;;;4951715;28;20093;-71
2021/12/18 11:59:57;;;;;;;9.30;7.03;;;12.20;96.70;;;;;;4932385;28;20483;-71
2021/12/18 12:02:42;;;;;;;8.00;6.10;;;12.30;96.70;;;;;;4967230;28;20137;-71
2021/12/18 12:05:12;;;;;;;10.27;6.72;;;12.40;96.70;;;;;;4955231;28;20405;-71
2021/12/18 12:07:43;;;;;;;10.18;6.65;;;12.50;96.70;;;;;;4972179;28;20039;-71
2021/12/18 12:10:46;;;;;;;9.07;7.40;;;12.70;96.70;;;;;;4958875;28;20390;-72
2021/12/18 12:13:11;;;;;;;11.68;7.32;;;12.80;96.70;;;;;;4950132;28;20050;-73
2021/12/18 12:15:52;;;;;;;17.23;10.18;;;12.90;96.70;;;;;;4950311;28;20512;-71
2021/12/18 12:18:20;;;;;;;14.20;8.85;;;13.00;96.70;;;;;;4971349;28;20046;-71
2021/12/18 12:20:48;;;;;;;13.35;8.45;;;13.00;96.70;;;;;;4971691;28;20523;-72
2021/12/18 12:23:16;;;;;;;11.07;6.75;;;13.10;96.70;;;;;;4935953;28;20047;-72
2021/12/18 12:25:49;;;;;;;14.77;6.60;;;13.20;96.70;;;;;;4954625;28;20330;-73
2021/12/18 12:28:21;;;;;;;13.43;8.13;;;13.20;96.70;;;;;;4953388;28;20059;-74
2021/12/18 12:31:02;;;;;;;11.68;7.13;;;13.30;96.70;;;;;;4974492;28;20482;-76
2021/12/18 12:33:33;;;;;;;9.73;7.20;;;13.40;96.70;;;;;;4967055;28;20073;-72
2021/12/18 12:36:08;;;;;;;11.35;7.07;;;13.50;96.70;;;;;;4951683;28;20591;-71
2021/12/18 12:38:41;;;;;;;8.73;6.43;;;13.70;96.70;;;;;;4937226;28;20050;-70
2021/12/18 12:41:40;;;;;;;10.60;6.95;;;13.80;96.70;;;;;;4970691;28;20042;-71
2021/12/18 12:44:18;;;;;;;10.13;6.88;;;13.90;96.70;;;;;;4978056;28;20059;-71
2021/12/18 12:46:46;;;;;;;9.82;6.25;;;14.00;96.70;;;;;;4943124;28;20058;-71
2021/12/18 12:49:18;;;;;;;14.55;6.57;;;14.00;96.70;;;;;;4962370;28;21097;-71
2021/12/18 12:52:05;;;;;;;7.97;5.43;;;13.90;96.70;;;;;;4957851;28;20055;-72
2021/12/18 12:54:54;;;;;;;9.10;6.65;;;14.00;96.70;;;;;;4972217;28;20061;-73
2021/12/18 12:57:41;;;;;;;8.82;6.20;;;14.00;96.70;;;;;;4944615;28;20058;-72
2021/12/18 13:00:46;;;;;;;8.73;6.60;;;14.10;96.70;;;;;;4957779;28;20043;-73
2021/12/18 13:03:27;;;;;;;8.13;7.30;;;14.10;96.70;;;;;;4956826;28;20051;-72
2021/12/18 13:06:13;;;;;;;12.60;8.30;;;14.20;96.70;;;;;;4973828;28;20053;-71
2021/12/18 13:08:45;;;;;;;18.00;7.10;;;14.20;96.70;;;;;;4963752;28;20102;-72
2021/12/18 13:11:19;;;;;;;9.27;5.88;;;14.20;96.70;;;;;;4956661;28;20046;-70
2021/12/18 13:13:51;;;;;;;8.15;5.95;;;14.30;96.70;;;;;;4958299;28;20300;-70
2021/12/18 13:16:21;;;;;;;7.72;5.15;;;14.40;96.70;;;;;;4972089;28;20038;-71
2021/12/18 13:18:51;;;;;;;10.63;6.22;;;14.40;96.70;;;;;;4957801;28;20079;-71
2021/12/18 13:21:21;;;;;;;8.38;5.88;;;14.30;96.70;;;;;;4956108;28;20078;-70
2021/12/18 13:23:58;;;;;;;10.40;6.95;;;14.30;96.70;;;;;;4958416;28;20042;-70
2021/12/18 13:26:32;;;;;;;9.60;6.55;;;14.20;96.70;;;;;;4955538;28;20489;-70
2021/12/18 13:29:09;;;;;;;8.90;6.05;;;14.00;96.70;;;;;;4957714;28;20512;-70
2021/12/18 13:31:43;;;;;;;9.50;5.82;;;13.90;96.70;;;;;;4956870;28;20500;-70
2021/12/18 13:34:14;;;;;;;9.27;4.80;;;13.90;96.70;;;;;;4972128;28;20516;-70
2021/12/18 13:36:50;;;;;;;6.13;4.32;;;13.80;96.70;;;;;;4971430;28;20508;-70
2021/12/18 13:39:21;;;;;;;6.82;3.88;;;13.70;96.70;;;;;;4952888;28;20053;-71
2021/12/18 13:42:08;;;;;;;5.55;3.75;;;13.60;96.70;;;;;;4956792;28;20121;-70
2021/12/18 13:44:52;;;;;;;6.60;5.03;;;13.60;96.70;;;;;;4957360;28;20050;-70
2021/12/18 13:47:27;;;;;;;4.40;3.17;;;13.50;96.70;;;;;;4975263;28;20596;-75
2021/12/18 13:50:03;;;;;;;7.63;3.28;;;13.50;96.70;;;;;;4972306;28;20578;-72
2021/12/18 13:52:42;;;;;;;3.58;2.42;;;13.50;96.70;;;;;;4977164;28;20054;-71
2021/12/18 13:55:32;;;;;;;6.15;3.17;;;13.50;96.70;;;;;;4978521;28;20133;-72
2021/12/18 13:58:04;;;;;;;6.15;2.97;;;13.50;96.70;;;;;;4952712;28;20501;-71
2021/12/18 14:00:57;;;;;;;5.72;2.67;;;13.50;96.70;;;;;;4957615;28;20055;-70
2021/12/18 14:03:29;;;;;;;7.45;3.22;;;13.40;96.70;;;;;;4953261;28;20069;-70